createdAt,value
2019-05-02T00:00:52.507Z,0.00
2019-05-02T00:01:52.491Z,0.00
2019-05-02T00:02:52.464Z,0.00
2019-05-02T00:03:52.455Z,0.00
2019-05-02T00:04:55.762Z,0.00
2019-05-02T00:05:52.384Z,0.00
2019-05-02T00:06:52.383Z,0.00
2019-05-02T00:07:53.801Z,0.00
2019-05-02T00:08:52.351Z,0.00
2019-05-02T00:09:52.333Z,0.00
2019-05-02T00:10:52.280Z,0.00
2019-05-02T00:11:58.672Z,0.00
2019-05-02T00:12:52.267Z,0.00
2019-05-02T00:13:52.245Z,0.00
2019-05-02T00:14:56.473Z,0.00
2019-05-02T00:15:52.205Z,0.00
2019-05-02T00:16:52.188Z,0.00
2019-05-02T00:17:52.169Z,0.00
2019-05-02T00:18:52.139Z,0.00
2019-05-02T00:19:52.124Z,0.00
2019-05-02T00:20:52.075Z,0.00
2019-05-02T00:21:52.057Z,0.00
2019-05-02T00:22:53.356Z,0.00
2019-05-02T00:23:52.050Z,0.00
2019-05-02T00:24:52.027Z,0.00
2019-05-02T00:25:52.621Z,0.00
2019-05-02T00:26:56.055Z,0.00
2019-05-02T00:27:51.947Z,0.00
2019-05-02T00:28:51.940Z,0.00
2019-05-02T00:29:53.822Z,0.00
2019-05-02T00:30:51.880Z,0.00
2019-05-02T00:31:51.861Z,0.00
2019-05-02T00:32:53.117Z,0.00
2019-05-02T00:33:51.808Z,0.00
2019-05-02T00:34:51.813Z,0.00
2019-05-02T00:35:51.791Z,0.00
2019-05-02T00:36:51.768Z,0.00
2019-05-02T00:37:51.745Z,0.00
2019-05-02T00:38:51.700Z,0.00
2019-05-02T00:39:51.708Z,0.00
2019-05-02T00:40:51.658Z,0.00
2019-05-02T00:41:51.664Z,0.00
2019-05-02T00:42:53.375Z,0.00
2019-05-02T00:43:51.613Z,0.00
2019-05-02T00:44:51.603Z,0.00
2019-05-02T00:45:55.052Z,0.00
2019-05-02T00:46:51.533Z,0.00
2019-05-02T00:47:51.536Z,0.00
2019-05-02T00:48:54.054Z,0.00
2019-05-02T00:49:51.504Z,0.00
2019-05-02T00:50:52.508Z,0.00
2019-05-02T00:51:51.444Z,0.00
2019-05-02T00:52:51.434Z,0.00
2019-05-02T00:53:51.407Z,0.00
2019-05-02T00:54:54.955Z,0.00
2019-05-02T00:55:51.347Z,0.00
2019-05-02T00:56:51.378Z,0.00
2019-05-02T00:57:55.726Z,0.00
2019-05-02T00:58:51.311Z,0.00
2019-05-02T00:59:51.285Z,0.00
2019-05-02T01:00:53.169Z,0.00
2019-05-02T01:01:51.246Z,0.00
2019-05-02T01:02:51.229Z,0.00
2019-05-02T01:03:51.990Z,0.00
2019-05-02T01:04:51.185Z,0.00
2019-05-02T01:05:51.164Z,0.00
2019-05-02T01:06:51.134Z,0.00
2019-05-02T01:07:51.124Z,0.00
2019-05-02T01:08:51.105Z,0.00
2019-05-02T01:09:51.081Z,0.00
2019-05-02T01:10:52.124Z,0.00
2019-05-02T01:11:51.224Z,0.00
2019-05-02T01:12:51.012Z,0.00
2019-05-02T01:13:55.838Z,0.00
2019-05-02T01:14:50.953Z,0.00
2019-05-02T01:15:50.956Z,0.00
2019-05-02T01:16:54.281Z,0.00
2019-05-02T01:17:50.902Z,0.00
2019-05-02T01:18:50.881Z,0.00
2019-05-02T01:19:51.491Z,0.00
2019-05-02T01:20:50.853Z,0.00
2019-05-02T01:21:50.816Z,0.00
2019-05-02T01:22:52.228Z,0.00
2019-05-02T01:23:50.760Z,0.00
2019-05-02T01:25:23.950Z,0.00
2019-05-02T01:25:52.788Z,0.00
2019-05-02T01:26:50.714Z,0.00
2019-05-02T01:27:50.704Z,0.00
2019-05-02T01:28:54.357Z,0.00
2019-05-02T01:29:50.650Z,0.00
2019-05-02T01:30:50.641Z,0.00
2019-05-02T01:31:54.780Z,0.00
2019-05-02T01:32:50.588Z,0.00
2019-05-02T01:33:50.578Z,0.00
2019-05-02T01:34:54.349Z,0.00
2019-05-02T01:35:50.540Z,0.00
2019-05-02T01:36:50.527Z,0.00
2019-05-02T01:37:54.495Z,0.00
2019-05-02T01:38:50.462Z,0.00
2019-05-02T01:39:50.445Z,0.00
2019-05-02T01:40:53.082Z,0.00
2019-05-02T01:41:50.408Z,0.00
2019-05-02T01:42:51.061Z,0.00
2019-05-02T01:43:50.364Z,0.00
2019-05-02T01:44:50.348Z,0.00
2019-05-02T01:45:50.325Z,0.00
2019-05-02T01:46:54.044Z,0.00
2019-05-02T01:47:50.278Z,0.00
2019-05-02T01:48:50.256Z,0.00
2019-05-02T01:49:52.094Z,0.00
2019-05-02T01:50:50.194Z,0.00
2019-05-02T01:51:50.203Z,0.00
2019-05-02T01:52:53.664Z,0.00
2019-05-02T01:53:50.146Z,0.00
2019-05-02T01:54:50.142Z,0.00
2019-05-02T01:55:52.057Z,0.00
2019-05-02T01:56:50.086Z,0.00
2019-05-02T01:57:50.048Z,0.00
2019-05-02T01:58:53.119Z,0.00
2019-05-02T01:59:50.021Z,0.00
2019-05-02T02:00:50.004Z,0.00
2019-05-02T02:01:53.248Z,0.00
2019-05-02T02:02:49.965Z,0.00
2019-05-02T02:03:49.919Z,0.00
2019-05-02T02:04:52.219Z,0.00
2019-05-02T02:05:49.910Z,0.00
2019-05-02T02:06:49.885Z,0.00
2019-05-02T02:07:50.858Z,0.00
2019-05-02T02:08:49.847Z,0.00
2019-05-02T02:09:49.810Z,0.00
2019-05-02T02:10:50.752Z,0.00
2019-05-02T02:11:49.792Z,0.00
2019-05-02T02:13:02.779Z,0.00
2019-05-02T02:13:49.732Z,0.00
2019-05-02T02:14:53.435Z,0.00
2019-05-02T02:15:49.690Z,0.00
2019-05-02T02:16:49.665Z,0.00
2019-05-02T02:17:51.459Z,0.00
2019-05-02T02:18:49.637Z,0.00
2019-05-02T02:19:49.601Z,0.00
2019-05-02T02:20:50.285Z,0.00
2019-05-02T02:21:49.564Z,0.00
2019-05-02T02:22:49.542Z,0.00
2019-05-02T02:23:50.828Z,0.00
2019-05-02T02:24:49.506Z,0.00
2019-05-02T02:25:49.461Z,0.00
2019-05-02T02:26:49.924Z,0.00
2019-05-02T02:27:49.444Z,0.00
2019-05-02T02:28:49.401Z,0.00
2019-05-02T02:29:49.406Z,0.00
2019-05-02T02:30:49.385Z,0.00
2019-05-02T02:31:49.372Z,0.00
2019-05-02T02:32:49.352Z,0.00
2019-05-02T02:33:49.891Z,0.00
2019-05-02T02:34:49.292Z,0.00
2019-05-02T02:35:51.876Z,0.00
2019-05-02T02:36:49.266Z,0.00
2019-05-02T02:37:53.399Z,0.00
2019-05-02T02:38:49.214Z,0.00
2019-05-02T02:39:54.290Z,0.00
2019-05-02T02:40:49.189Z,0.00
2019-05-02T02:41:52.346Z,0.00
2019-05-02T02:42:49.139Z,0.00
2019-05-02T02:43:54.724Z,0.00
2019-05-02T02:44:49.086Z,0.00
2019-05-02T02:45:51.820Z,0.00
2019-05-02T02:46:49.023Z,0.00
2019-05-02T02:47:53.017Z,0.00
2019-05-02T02:48:49.007Z,0.00
2019-05-02T02:49:48.976Z,0.00
2019-05-02T02:50:48.957Z,0.00
2019-05-02T02:51:48.951Z,0.00
2019-05-02T02:52:48.928Z,0.00
2019-05-02T02:53:48.876Z,0.00
2019-05-02T02:54:48.880Z,0.00
2019-05-02T02:55:48.834Z,0.00
2019-05-02T02:56:48.820Z,0.00
2019-05-02T02:57:48.818Z,0.00
2019-05-02T02:58:48.798Z,0.00
2019-05-02T02:59:48.765Z,0.00
2019-05-02T03:00:49.368Z,0.00
2019-05-02T03:01:48.707Z,0.00
2019-05-02T03:02:50.052Z,0.00
2019-05-02T03:03:48.705Z,0.00
2019-05-02T03:04:48.659Z,0.00
2019-05-02T03:05:48.652Z,0.00
2019-05-02T03:06:48.627Z,0.00
2019-05-02T03:07:48.616Z,0.00
2019-05-02T03:08:49.332Z,0.00
2019-05-02T03:09:48.555Z,0.00
2019-05-02T03:10:48.544Z,0.00
2019-05-02T03:11:48.523Z,0.00
2019-05-02T03:12:48.501Z,0.00
2019-05-02T03:13:52.748Z,0.00
2019-05-02T03:14:49.416Z,0.00
2019-05-02T03:15:48.442Z,0.00
2019-05-02T03:16:49.525Z,0.00
2019-05-02T03:17:48.386Z,0.00
2019-05-02T03:18:48.363Z,0.00
2019-05-02T03:19:48.342Z,0.00
2019-05-02T03:20:48.320Z,0.00
2019-05-02T03:21:54.638Z,0.00
2019-05-02T03:22:48.282Z,0.00
2019-05-02T03:23:48.276Z,0.00
2019-05-02T03:24:48.250Z,0.00
2019-05-02T03:25:51.301Z,0.00
2019-05-02T03:26:48.772Z,0.00
2019-05-02T03:27:48.182Z,0.00
2019-05-02T03:28:57.655Z,0.00
2019-05-02T03:29:48.114Z,0.00
2019-05-02T03:30:48.124Z,0.00
2019-05-02T03:31:48.095Z,0.00
2019-05-02T03:33:02.587Z,0.00
2019-05-02T03:34:00.318Z,0.00
2019-05-02T03:34:53.064Z,0.00
2019-05-02T03:35:49.113Z,0.00
2019-05-02T03:36:47.980Z,0.00
2019-05-02T03:37:51.479Z,0.00
2019-05-02T03:38:47.948Z,0.00
2019-05-02T03:39:56.543Z,0.00
2019-05-02T03:40:47.906Z,0.00
2019-05-02T03:41:47.856Z,0.00
2019-05-02T03:42:47.921Z,0.00
2019-05-02T03:43:47.839Z,0.00
2019-05-02T03:44:54.880Z,0.00
2019-05-02T03:45:47.798Z,0.00
2019-05-02T03:46:54.486Z,0.00
2019-05-02T03:47:47.753Z,0.00
2019-05-02T03:48:47.748Z,0.00
2019-05-02T03:49:51.834Z,0.00
2019-05-02T03:50:48.002Z,0.00
2019-05-02T03:51:47.643Z,0.00
2019-05-02T03:52:47.624Z,0.00
2019-05-02T03:53:47.629Z,0.00
2019-05-02T03:54:50.127Z,0.00
2019-05-02T03:55:47.585Z,0.00
2019-05-02T03:56:51.222Z,0.00
2019-05-02T03:57:47.588Z,0.00
2019-05-02T03:58:56.357Z,0.00
2019-05-02T03:59:47.466Z,0.00
2019-05-02T04:00:47.453Z,0.00
2019-05-02T04:01:47.458Z,0.00
2019-05-02T04:02:59.074Z,0.00
2019-05-02T04:03:47.409Z,0.00
2019-05-02T04:04:47.388Z,0.00
2019-05-02T04:05:47.367Z,0.00
2019-05-02T04:06:47.336Z,0.00
2019-05-02T04:07:47.296Z,0.00
2019-05-02T04:08:47.291Z,0.00
2019-05-02T04:09:47.285Z,0.00
2019-05-02T04:10:52.896Z,0.00
2019-05-02T04:11:47.215Z,0.00
2019-05-02T04:12:53.310Z,0.00
2019-05-02T04:13:47.188Z,0.00
2019-05-02T04:14:47.171Z,0.00
2019-05-02T04:15:47.154Z,0.00
2019-05-02T04:16:48.798Z,0.00
2019-05-02T04:17:47.112Z,0.00
2019-05-02T04:18:54.649Z,0.00
2019-05-02T04:19:47.060Z,0.00
2019-05-02T04:20:49.519Z,0.00
2019-05-02T04:21:52.510Z,0.00
2019-05-02T04:22:48.975Z,0.00
2019-05-02T04:23:46.974Z,0.00
2019-05-02T04:24:54.597Z,0.00
2019-05-02T04:25:46.944Z,0.00
2019-05-02T04:26:53.678Z,0.00
2019-05-02T04:27:46.907Z,0.00
2019-05-02T04:28:51.623Z,0.00
2019-05-02T04:29:46.870Z,0.00
2019-05-02T04:30:51.364Z,0.00
2019-05-02T04:31:46.813Z,0.00
2019-05-02T04:32:49.870Z,0.00
2019-05-02T04:33:46.770Z,0.00
2019-05-02T04:34:49.128Z,0.00
2019-05-02T04:35:46.704Z,0.00
2019-05-02T04:36:47.505Z,0.00
2019-05-02T04:37:46.678Z,0.00
2019-05-02T04:38:47.974Z,0.00
2019-05-02T04:39:49.072Z,0.00
2019-05-02T04:40:49.491Z,0.00
2019-05-02T04:41:48.556Z,0.00
2019-05-02T04:42:52.636Z,0.00
2019-05-02T04:43:54.630Z,0.00
2019-05-02T04:45:08.844Z,0.00
2019-05-02T04:45:55.719Z,0.00
2019-05-02T04:46:48.909Z,0.00
2019-05-02T04:47:54.894Z,0.00
2019-05-02T04:48:49.736Z,0.00
2019-05-02T04:49:51.485Z,0.00
2019-05-02T04:50:48.358Z,0.00
2019-05-02T04:51:50.777Z,0.00
2019-05-02T04:52:51.992Z,0.00
2019-05-02T04:53:49.511Z,0.00
2019-05-02T04:54:48.580Z,0.00
2019-05-02T04:55:52.031Z,0.00
2019-05-02T04:56:49.704Z,0.00
2019-05-02T04:57:50.461Z,0.00
2019-05-02T04:58:48.971Z,0.00
2019-05-02T04:59:50.080Z,0.00
2019-05-02T05:00:53.667Z,0.00
2019-05-02T05:01:49.818Z,0.00
2019-05-02T05:02:48.403Z,0.00
2019-05-02T05:03:49.234Z,0.00
2019-05-02T05:04:49.180Z,0.00
2019-05-02T05:05:48.262Z,0.00
2019-05-02T05:06:54.959Z,0.00
2019-05-02T05:07:46.521Z,0.00
2019-05-02T05:08:48.340Z,0.00
2019-05-02T05:09:47.917Z,0.00
2019-05-02T05:10:47.884Z,0.00
2019-05-02T05:11:48.092Z,0.00
2019-05-02T05:12:47.902Z,0.00
2019-05-02T05:13:47.827Z,0.00
2019-05-02T05:14:47.446Z,0.00
2019-05-02T05:15:49.490Z,0.00
2019-05-02T05:16:51.731Z,0.00
2019-05-02T05:17:47.896Z,0.00
2019-05-02T05:18:49.262Z,0.00
2019-05-02T05:19:45.775Z,0.00
2019-05-02T05:20:52.791Z,0.00
2019-05-02T05:21:47.656Z,0.00
2019-05-02T05:22:47.775Z,0.00
2019-05-02T05:23:47.183Z,0.00
2019-05-02T05:24:47.588Z,0.00
2019-05-02T05:25:47.892Z,0.00
2019-05-02T05:26:47.585Z,0.00
2019-05-02T05:27:47.881Z,0.00
2019-05-02T05:28:47.555Z,0.00
2019-05-02T05:29:46.641Z,0.00
2019-05-02T05:30:49.177Z,0.00
2019-05-02T05:31:45.500Z,0.00
2019-05-02T05:32:45.479Z,0.00
2019-05-02T05:33:45.475Z,0.00
2019-05-02T05:34:47.701Z,0.00
2019-05-02T05:35:48.832Z,0.00
2019-05-02T05:36:45.406Z,0.00
2019-05-02T05:37:51.190Z,0.00
2019-05-02T05:38:47.669Z,0.00
2019-05-02T05:39:48.764Z,0.00
2019-05-02T05:40:45.334Z,0.00
2019-05-02T05:41:50.536Z,0.00
2019-05-02T05:42:45.291Z,0.00
2019-05-02T05:43:50.064Z,0.00
2019-05-02T05:44:45.248Z,0.00
2019-05-02T05:45:53.517Z,0.00
2019-05-02T05:46:46.909Z,0.00
2019-05-02T05:47:45.180Z,0.00
2019-05-02T05:48:45.160Z,0.00
2019-05-02T05:49:45.138Z,0.00
2019-05-02T05:50:45.090Z,0.00
2019-05-02T05:51:45.091Z,0.00
2019-05-02T05:52:45.073Z,0.00
2019-05-02T05:53:45.051Z,0.00
2019-05-02T05:54:45.028Z,0.00
2019-05-02T05:55:44.997Z,0.00
2019-05-02T05:56:44.990Z,0.00
2019-05-02T05:57:47.615Z,0.00
2019-05-02T05:58:50.405Z,0.00
2019-05-02T05:59:44.924Z,0.00
2019-05-02T06:00:45.908Z,0.00
2019-05-02T06:01:44.866Z,0.00
2019-05-02T06:02:55.523Z,0.00
2019-05-02T06:03:45.181Z,0.00
2019-05-02T06:04:44.834Z,0.00
2019-05-02T06:05:44.766Z,0.00
2019-05-02T06:06:44.769Z,0.00
2019-05-02T06:07:45.078Z,0.00
2019-05-02T06:08:49.225Z,0.00
2019-05-02T06:09:44.691Z,0.00
2019-05-02T06:10:45.238Z,0.00
2019-05-02T06:11:44.654Z,0.00
2019-05-02T06:12:44.633Z,0.00
2019-05-02T06:13:48.739Z,0.00
2019-05-02T06:14:46.410Z,0.00
2019-05-02T06:15:45.978Z,0.00
2019-05-02T06:16:46.765Z,0.00
2019-05-02T06:17:44.526Z,0.00
2019-05-02T06:18:44.487Z,0.00
2019-05-02T06:19:48.282Z,0.00
2019-05-02T06:20:44.472Z,0.00
2019-05-02T06:21:45.261Z,0.00
2019-05-02T06:22:44.411Z,0.00
2019-05-02T06:23:44.391Z,0.00
2019-05-02T06:24:46.150Z,0.00
2019-05-02T06:25:44.360Z,0.00
2019-05-02T06:26:44.641Z,0.00
2019-05-02T06:27:44.304Z,0.00
2019-05-02T06:28:44.283Z,0.00
2019-05-02T06:29:44.263Z,0.00
2019-05-02T06:30:44.240Z,0.00
2019-05-02T06:31:44.483Z,0.00
2019-05-02T06:32:44.207Z,0.00
2019-05-02T06:33:44.171Z,0.00
2019-05-02T06:34:46.334Z,0.00
2019-05-02T06:35:44.143Z,0.00
2019-05-02T06:36:44.119Z,0.00
2019-05-02T06:37:45.411Z,0.00
2019-05-02T06:38:44.082Z,0.00
2019-05-02T06:39:44.056Z,0.00
2019-05-02T06:40:44.822Z,0.00
2019-05-02T06:41:44.015Z,0.00
2019-05-02T06:42:43.990Z,0.00
2019-05-02T06:43:46.714Z,0.00
2019-05-02T06:44:43.918Z,0.00
2019-05-02T06:45:43.915Z,0.00
2019-05-02T06:46:43.903Z,0.00
2019-05-02T06:47:43.881Z,0.00
2019-05-02T06:48:48.151Z,0.00
2019-05-02T06:49:43.841Z,0.00
2019-05-02T06:50:43.816Z,0.00
2019-05-02T06:51:43.788Z,0.00
2019-05-02T06:52:43.772Z,0.00
2019-05-02T06:53:47.093Z,0.00
2019-05-02T06:54:43.728Z,0.00
2019-05-02T06:55:43.698Z,0.00
2019-05-02T06:56:47.941Z,0.00
2019-05-02T06:57:43.653Z,0.00
2019-05-02T06:58:43.643Z,0.00
2019-05-02T06:59:43.622Z,0.00
2019-05-02T07:00:56.505Z,0.00
2019-05-02T07:01:43.575Z,0.00
2019-05-02T07:02:43.554Z,0.00
2019-05-02T07:03:46.241Z,0.00
2019-05-02T07:04:43.511Z,0.00
2019-05-02T07:05:43.479Z,0.00
2019-05-02T07:06:57.175Z,0.00
2019-05-02T07:07:43.491Z,0.00
2019-05-02T07:08:43.438Z,0.00
2019-05-02T07:09:43.452Z,0.00
2019-05-02T07:10:44.816Z,0.00
2019-05-02T07:11:56.395Z,0.00
2019-05-02T07:12:46.242Z,0.00
2019-05-02T07:13:43.865Z,0.00
2019-05-02T07:14:45.735Z,0.00
2019-05-02T07:15:43.262Z,0.00
2019-05-02T07:16:43.252Z,0.00
2019-05-02T07:17:43.222Z,0.00
2019-05-02T07:18:47.473Z,0.00
2019-05-02T07:19:43.191Z,0.00
2019-05-02T07:20:43.221Z,0.00
2019-05-02T07:21:43.142Z,0.00
2019-05-02T07:22:45.570Z,0.00
2019-05-02T07:23:43.087Z,0.00
2019-05-02T07:24:43.069Z,0.00
2019-05-02T07:25:43.935Z,0.00
2019-05-02T07:26:43.035Z,0.00
2019-05-02T07:27:43.012Z,0.00
2019-05-02T07:28:45.693Z,0.00
2019-05-02T07:29:42.961Z,0.00
2019-05-02T07:30:42.935Z,0.00
2019-05-02T07:31:47.646Z,0.00
2019-05-02T07:32:42.904Z,0.00
2019-05-02T07:33:42.945Z,0.00
2019-05-02T07:34:44.147Z,0.00
2019-05-02T07:35:42.813Z,0.00
2019-05-02T07:36:42.843Z,0.00
2019-05-02T07:37:44.113Z,0.00
2019-05-02T07:38:42.772Z,0.00
2019-05-02T07:39:42.744Z,0.00
2019-05-02T07:40:42.730Z,0.00
2019-05-02T07:41:42.708Z,0.00
2019-05-02T07:42:43.231Z,0.00
2019-05-02T07:43:42.663Z,0.00
2019-05-02T07:44:42.619Z,0.00
2019-05-02T07:45:45.349Z,0.00
2019-05-02T07:46:51.619Z,0.00
2019-05-02T07:47:42.602Z,0.00
2019-05-02T07:48:43.696Z,0.00
2019-05-02T07:49:42.538Z,0.00
2019-05-02T07:50:46.459Z,0.00
2019-05-02T07:51:42.497Z,0.00
2019-05-02T07:52:42.478Z,0.00
2019-05-02T07:53:44.605Z,0.00
2019-05-02T07:54:42.408Z,0.00
2019-05-02T07:55:42.702Z,0.00
2019-05-02T07:56:42.364Z,0.00
2019-05-02T07:57:42.360Z,0.00
2019-05-02T07:58:46.896Z,0.00
2019-05-02T07:59:42.323Z,0.00
2019-05-02T08:00:42.291Z,0.00
2019-05-02T08:01:44.903Z,0.00
2019-05-02T08:02:42.261Z,0.00
2019-05-02T08:03:42.237Z,0.00
2019-05-02T08:04:43.588Z,0.00
2019-05-02T08:05:42.194Z,0.00
2019-05-02T08:06:44.668Z,0.00
2019-05-02T08:07:42.141Z,0.00
2019-05-02T08:08:42.124Z,0.00
2019-05-02T08:09:44.089Z,0.00
2019-05-02T08:10:42.075Z,0.00
2019-05-02T08:11:42.040Z,0.00
2019-05-02T08:12:42.019Z,0.00
2019-05-02T08:13:42.017Z,0.00
2019-05-02T08:14:41.995Z,0.00
2019-05-02T08:15:45.580Z,0.00
2019-05-02T08:16:41.952Z,0.00
2019-05-02T08:17:41.935Z,0.00
2019-05-02T08:18:41.890Z,0.00
2019-05-02T08:19:43.196Z,0.00
2019-05-02T08:20:41.870Z,0.00
2019-05-02T08:21:41.853Z,0.00
2019-05-02T08:22:44.012Z,0.00
2019-05-02T08:23:41.813Z,0.00
2019-05-02T08:24:41.780Z,0.00
2019-05-02T08:25:45.379Z,0.00
2019-05-02T08:26:41.737Z,0.00
2019-05-02T08:27:41.726Z,0.00
2019-05-02T08:28:41.689Z,0.00
2019-05-02T08:29:41.653Z,0.00
2019-05-02T08:30:41.917Z,0.00
2019-05-02T08:31:41.640Z,0.00
2019-05-02T08:32:41.606Z,0.00
2019-05-02T08:33:41.589Z,0.00
2019-05-02T08:34:41.583Z,0.00
2019-05-02T08:35:41.546Z,0.00
2019-05-02T08:36:41.518Z,0.00
2019-05-02T08:37:43.072Z,0.00
2019-05-02T08:38:41.487Z,0.00
2019-05-02T08:39:41.459Z,0.00
2019-05-02T08:40:42.441Z,0.00
2019-05-02T08:41:41.419Z,0.00
2019-05-02T08:42:41.395Z,0.00
2019-05-02T08:43:44.912Z,0.00
2019-05-02T08:44:50.701Z,0.00
2019-05-02T08:45:41.335Z,0.00
2019-05-02T08:46:41.309Z,0.00
2019-05-02T08:47:41.288Z,0.00
2019-05-02T08:48:42.248Z,0.00
2019-05-02T08:49:42.616Z,0.00
2019-05-02T08:50:41.216Z,0.00
2019-05-02T08:51:41.596Z,0.00
2019-05-02T08:52:42.387Z,0.00
2019-05-02T08:53:41.147Z,0.00
2019-05-02T08:54:41.137Z,0.00
2019-05-02T08:55:45.198Z,0.00
2019-05-02T08:56:41.075Z,0.00
2019-05-02T08:57:41.050Z,0.00
2019-05-02T08:58:44.916Z,0.00
2019-05-02T08:59:41.040Z,0.00
2019-05-02T09:00:40.994Z,0.00
2019-05-02T09:01:44.736Z,0.00
2019-05-02T09:02:42.020Z,0.00
2019-05-02T09:03:54.754Z,0.00
2019-05-02T09:04:40.913Z,0.00
2019-05-02T09:05:45.621Z,0.00
2019-05-02T09:06:40.878Z,0.00
2019-05-02T09:07:42.851Z,0.00
2019-05-02T09:08:40.826Z,0.00
2019-05-02T09:09:40.820Z,0.00
2019-05-02T09:10:42.178Z,0.00
2019-05-02T09:11:41.511Z,0.00
2019-05-02T09:12:42.096Z,0.00
2019-05-02T09:13:42.205Z,0.00
2019-05-02T09:14:42.544Z,0.00
2019-05-02T09:15:49.750Z,0.00
2019-05-02T09:16:42.665Z,0.00
2019-05-02T09:17:46.499Z,0.00
2019-05-02T09:18:50.041Z,0.00
2019-05-02T09:19:42.770Z,0.00
2019-05-02T09:20:42.345Z,0.00
2019-05-02T09:21:40.553Z,0.00
2019-05-02T09:22:41.837Z,0.00
2019-05-02T09:23:41.992Z,0.00
2019-05-02T09:24:42.985Z,0.00
2019-05-02T09:25:40.468Z,0.00
2019-05-02T09:26:42.437Z,0.00
2019-05-02T09:27:42.035Z,5.63
2019-05-02T09:28:42.261Z,5.63
2019-05-02T09:29:44.448Z,5.63
2019-05-02T09:30:41.897Z,5.63
2019-05-02T09:31:42.179Z,11.25
2019-05-02T09:32:41.918Z,5.63
2019-05-02T09:33:42.499Z,5.63
2019-05-02T09:34:42.286Z,11.25
2019-05-02T09:35:42.054Z,11.25
2019-05-02T09:36:41.843Z,16.88
2019-05-02T09:37:41.974Z,11.25
2019-05-02T09:38:42.297Z,22.50
2019-05-02T09:39:41.539Z,56.25
2019-05-02T09:40:40.141Z,56.25
2019-05-02T09:41:41.944Z,61.88
2019-05-02T09:42:40.103Z,67.50
2019-05-02T09:43:40.051Z,67.50
2019-05-02T09:44:40.037Z,73.13
2019-05-02T09:45:41.799Z,78.75
2019-05-02T09:46:40.022Z,78.75
2019-05-02T09:47:55.379Z,84.38
2019-05-02T09:48:39.957Z,90.00
2019-05-02T09:49:41.728Z,90.00
2019-05-02T09:50:41.974Z,95.63
2019-05-02T09:51:41.919Z,101.25
2019-05-02T09:52:43.622Z,106.88
2019-05-02T09:53:39.865Z,112.50
2019-05-02T09:54:42.496Z,112.50
2019-05-02T09:55:42.404Z,118.13
2019-05-02T09:56:39.783Z,123.75
2019-05-02T09:57:39.769Z,129.38
2019-05-02T09:58:41.906Z,140.63
2019-05-02T09:59:44.904Z,146.25
2019-05-02T10:00:41.688Z,151.88
2019-05-02T10:01:39.656Z,157.50
2019-05-02T10:02:41.763Z,163.13
2019-05-02T10:03:39.649Z,180.00
2019-05-02T10:04:42.134Z,208.13
2019-05-02T10:05:39.603Z,230.63
2019-05-02T10:06:39.580Z,247.50
2019-05-02T10:07:39.554Z,247.50
2019-05-02T10:08:43.429Z,258.75
2019-05-02T10:09:39.488Z,264.38
2019-05-02T10:10:44.519Z,275.63
2019-05-02T10:11:39.468Z,275.63
2019-05-02T10:12:39.445Z,281.25
2019-05-02T10:13:39.416Z,286.88
2019-05-02T10:14:39.396Z,292.50
2019-05-02T10:15:39.388Z,298.13
2019-05-02T10:16:39.365Z,303.75
2019-05-02T10:17:42.970Z,303.75
2019-05-02T10:18:39.331Z,309.38
2019-05-02T10:19:41.230Z,315.00
2019-05-02T10:20:39.284Z,315.00
2019-05-02T10:21:39.259Z,320.63
2019-05-02T10:22:41.315Z,331.88
2019-05-02T10:23:39.211Z,354.38
2019-05-02T10:24:39.191Z,354.38
2019-05-02T10:25:44.644Z,371.25
2019-05-02T10:26:39.153Z,371.25
2019-05-02T10:27:46.055Z,382.50
2019-05-02T10:28:41.840Z,399.38
2019-05-02T10:29:39.099Z,393.75
2019-05-02T10:30:39.074Z,382.50
2019-05-02T10:31:39.539Z,371.25
2019-05-02T10:32:39.042Z,416.25
2019-05-02T10:33:39.024Z,444.38
2019-05-02T10:34:38.992Z,472.50
2019-05-02T10:35:40.712Z,466.88
2019-05-02T10:36:38.957Z,466.88
2019-05-02T10:37:39.679Z,472.50
2019-05-02T10:38:38.932Z,489.38
2019-05-02T10:39:38.915Z,517.50
2019-05-02T10:40:38.878Z,534.38
2019-05-02T10:41:40.951Z,540.00
2019-05-02T10:42:38.855Z,545.63
2019-05-02T10:43:38.839Z,534.38
2019-05-02T10:44:38.810Z,528.75
2019-05-02T10:45:38.797Z,517.50
2019-05-02T10:46:38.787Z,500.63
2019-05-02T10:47:38.766Z,500.63
2019-05-02T10:48:38.732Z,472.50
2019-05-02T10:50:11.932Z,489.38
2019-05-02T10:50:38.700Z,472.50
2019-05-02T10:51:43.428Z,466.88
2019-05-02T10:52:38.659Z,472.50
2019-05-02T10:53:38.633Z,478.13
2019-05-02T10:54:38.643Z,495.00
2019-05-02T10:55:38.629Z,534.38
2019-05-02T10:56:38.608Z,540.00
2019-05-02T10:57:38.578Z,562.50
2019-05-02T10:58:38.563Z,590.63
2019-05-02T10:59:38.555Z,624.38
2019-05-02T11:00:38.529Z,624.38
2019-05-02T11:01:38.513Z,635.63
2019-05-02T11:02:38.508Z,680.63
2019-05-02T11:03:46.221Z,686.25
2019-05-02T11:04:38.472Z,720.00
2019-05-02T11:05:38.435Z,720.00
2019-05-02T11:06:42.569Z,691.88
2019-05-02T11:07:38.427Z,658.13
2019-05-02T11:08:42.194Z,658.13
2019-05-02T11:09:38.384Z,675.00
2019-05-02T11:10:38.383Z,742.50
2019-05-02T11:11:38.361Z,646.88
2019-05-02T11:12:46.092Z,697.50
2019-05-02T11:13:38.331Z,731.25
2019-05-02T11:14:38.314Z,765.00
2019-05-02T11:15:38.301Z,781.88
2019-05-02T11:16:38.284Z,804.38
2019-05-02T11:17:38.260Z,804.38
2019-05-02T11:18:42.388Z,787.50
2019-05-02T11:19:38.240Z,776.25
2019-05-02T11:20:38.214Z,765.00
2019-05-02T11:21:38.207Z,765.00
2019-05-02T11:22:38.162Z,765.00
2019-05-02T11:23:38.245Z,821.25
2019-05-02T11:24:38.166Z,804.38
2019-05-02T11:25:38.136Z,832.50
2019-05-02T11:26:38.127Z,781.88
2019-05-02T11:27:38.118Z,534.38
2019-05-02T11:28:38.110Z,652.50
2019-05-02T11:29:38.069Z,720.00
2019-05-02T11:30:38.046Z,725.63
2019-05-02T11:31:38.055Z,748.13
2019-05-02T11:32:38.039Z,787.50
2019-05-02T11:33:38.025Z,759.38
2019-05-02T11:34:38.010Z,810.00
2019-05-02T11:35:41.924Z,855.00
2019-05-02T11:36:37.955Z,866.25
2019-05-02T11:37:37.938Z,900.00
2019-05-02T11:38:48.623Z,866.25
2019-05-02T11:39:46.528Z,978.75
2019-05-02T11:40:37.921Z,995.63
2019-05-02T11:41:37.895Z,1018.13
2019-05-02T11:42:37.881Z,1018.13
2019-05-02T11:43:42.246Z,990.00
2019-05-02T11:44:37.867Z,787.50
2019-05-02T11:45:37.848Z,871.88
2019-05-02T11:46:42.962Z,877.50
2019-05-02T11:47:37.812Z,765.00
2019-05-02T11:48:37.804Z,765.00
2019-05-02T11:49:37.789Z,911.25
2019-05-02T11:50:37.772Z,832.50
2019-05-02T11:51:37.756Z,770.63
2019-05-02T11:52:37.757Z,759.38
2019-05-02T11:53:37.739Z,748.13
2019-05-02T11:54:39.269Z,781.88
2019-05-02T11:55:37.720Z,810.00
2019-05-02T11:56:41.154Z,843.75
2019-05-02T11:57:37.671Z,894.38
2019-05-02T11:58:42.381Z,922.50
2019-05-02T11:59:37.645Z,1102.50
2019-05-02T12:00:39.723Z,1074.38
2019-05-02T12:01:39.696Z,1068.75
2019-05-02T12:02:37.583Z,995.63
2019-05-02T12:03:37.563Z,984.38
2019-05-02T12:04:37.575Z,1068.75
2019-05-02T12:05:39.291Z,1040.63
2019-05-02T12:06:37.533Z,1158.75
2019-05-02T12:07:37.530Z,1119.38
2019-05-02T12:08:39.459Z,1164.38
2019-05-02T12:09:37.492Z,1164.38
2019-05-02T12:10:37.480Z,1175.63
2019-05-02T12:11:37.468Z,1186.88
2019-05-02T12:12:37.466Z,1186.88
2019-05-02T12:13:37.439Z,1248.75
2019-05-02T12:14:37.469Z,1563.75
2019-05-02T12:15:37.413Z,1164.38
2019-05-02T12:16:37.399Z,1220.63
2019-05-02T12:17:37.379Z,1265.63
2019-05-02T12:18:37.363Z,1226.25
2019-05-02T12:19:37.339Z,1215.00
2019-05-02T12:20:37.312Z,1170.00
2019-05-02T12:21:39.234Z,1063.13
2019-05-02T12:22:37.328Z,1147.50
2019-05-02T12:23:37.263Z,1231.88
2019-05-02T12:24:40.900Z,1130.63
2019-05-02T12:25:37.256Z,1175.63
2019-05-02T12:26:37.240Z,1299.38
2019-05-02T12:27:37.233Z,1080.00
2019-05-02T12:29:12.210Z,1006.88
2019-05-02T12:29:37.178Z,1035.00
2019-05-02T12:30:37.881Z,956.25
2019-05-02T12:31:37.175Z,922.50
2019-05-02T12:32:37.178Z,916.88
2019-05-02T12:33:37.140Z,911.25
2019-05-02T12:34:37.136Z,928.13
2019-05-02T12:35:37.107Z,961.88
2019-05-02T12:36:37.094Z,1018.13
2019-05-02T12:37:37.060Z,1186.88
2019-05-02T12:38:37.074Z,1063.13
2019-05-02T12:39:37.032Z,1119.38
2019-05-02T12:40:37.050Z,1181.25
2019-05-02T12:41:37.034Z,1254.38
2019-05-02T12:42:36.998Z,1423.13
2019-05-02T12:43:36.993Z,1293.75
2019-05-02T12:44:36.978Z,1181.25
2019-05-02T12:45:37.024Z,1170.00
2019-05-02T12:46:36.962Z,1130.63
2019-05-02T12:47:36.949Z,1125.00
2019-05-02T12:48:36.938Z,1153.13
2019-05-02T12:49:36.919Z,1186.88
2019-05-02T12:50:36.905Z,1186.88
2019-05-02T12:51:36.881Z,1153.13
2019-05-02T12:52:36.878Z,1136.25
2019-05-02T12:53:36.856Z,1136.25
2019-05-02T12:54:36.838Z,1153.13
2019-05-02T12:55:36.834Z,1198.13
2019-05-02T12:56:36.821Z,1237.50
2019-05-02T12:57:36.806Z,1260.00
2019-05-02T12:58:36.796Z,1209.38
2019-05-02T12:59:36.772Z,1192.50
2019-05-02T13:00:36.754Z,1164.38
2019-05-02T13:01:36.751Z,1158.75
2019-05-02T13:02:36.743Z,1181.25
2019-05-02T13:03:36.720Z,1192.50